Dunbar, NE

7:00 PM CST on December 26, 2014 (GMT -0600)
Offutt Air Force Base | Change Station
CLOSE
Current Station
Airport
Location: Omaha Offutt,
Elevation: 1047 ft
Nearby Weather Stations
Active Advisory: Special Statement

Elev 1047 ft 41.12 °N, 95.91 °W | Updated 2 minutes ago

Overcast
Overcast
32 °F
Feels Like 26 °F
N
8
Wind Variable Wind from North

Today
High -- | Low -- °F
--% Chance of Precip.
Yesterday
High -- | Low -- °F
Precip. -- in
7:46 AM 5:02 PM
Waxing Crescent, 31% visible
Pressure 30.04 in
Visibility 4.0 miles
Clouds Few 600 ft
Overcast 1100 ft
Windchill 26 °F
Dew Point 31 °F
Humidity 94%
Rainfall 0.00 in
Snow Depth Not available.
UV 0 out of 12
Pollen .10 out of 12
Air Quality Not available.
Flu Activity Not available.
METAR KOFF 270058Z AUTO 35007KT 4SM -DZ BR FEW006 OVC011 00/00 A3000 RMK AO2 UPB0004E0012RAB0012E0035DZB0035 SLP173 P0000 T00031005

More Conditions Fewer Conditions

Pressure 30.04 in
Visibility 4.0 miles
Clouds Few 600 ft
Overcast 1100 ft
Windchill 26 °F
Dew Point 31 °F
Humidity 94%
Rainfall 0.00 in
Snow Depth Not available.
UV 0 out of 12
Pollen .10 out of 12
Air Quality Not available.
Flu Activity Not available.
METAR KOFF 270058Z AUTO 35007KT 4SM -DZ BR FEW006 OVC011 00/00 A3000 RMK AO2 UPB0004E0012RAB0012E0035DZB0035 SLP173 P0000 T00031005

More Conditions Fewer Conditions

10-Day Weather Forecast

Almanac

Astronomy

Dec. 26, 2014 Rise Set
Actual Time
Civil Twilight
Nautical Twilight
Astronomical Twilight
Moon
Length of Visible Light
Length of Day
Tomorrow will be .
, % of the Moon is Illuminated

Today's Extremes

State Highs State Lows

Community

WunderPhotos

Upload Photos

1,780,800 photos uploaded!

WunderBlogs® & News

Nearby

Air Quality

  Air Quality AQ Index Pollutant
Not available.

Snow Depth

Station Depth Elevation

Earthquake Activity

City Distance Mag. Time & Date
Minimum magnitude displayed is 2.5.

Coastal Water Temperatures

Place Temperature

Nearby Weather Stations